Time;durP1;ratioP1;P1;durP2;ratioP2;P2;SDS_P1;SDS_P2;PMS_P1;PMS_P2;Temp;Humidity;BMP_temperature;BMP_pressure;BME280_temperature;BME280_humidity;BME280_pressure;Samples;Min_cycle;Max_cycle;Signal;HPM_P1;HPM_P2
2021/01/17 00:00:24;;;;;;;17.83;10.10;;;-1.60;99.90;;;-0.83;100.00;98142.81;4999029;28;20630;-82
2021/01/17 00:02:53;;;;;;;18.47;10.37;;;-1.70;99.90;;;-0.84;100.00;98135.25;5004722;28;20466;-82
2021/01/17 00:05:23;;;;;;;18.90;10.37;;;-1.70;99.90;;;-0.94;100.00;98132.56;5001121;28;20462;-82
2021/01/17 00:07:53;;;;;;;24.00;11.50;;;-1.80;99.90;;;-0.93;100.00;98131.59;4998242;28;20472;-82
2021/01/17 00:10:24;;;;;;;22.37;11.30;;;-1.70;99.90;;;-0.93;100.00;98126.47;5000460;28;20471;-82
2021/01/17 00:12:54;;;;;;;25.20;11.50;;;-1.80;99.90;;;-0.92;100.00;98125.53;5001039;28;20498;-82
2021/01/17 00:15:23;;;;;;;23.10;11.37;;;-1.70;99.90;;;-0.88;100.00;98121.81;5000486;28;20452;-82
2021/01/17 00:17:51;;;;;;;22.83;11.90;;;-1.70;99.90;;;-0.82;100.00;98123.09;5001218;28;20453;-82
2021/01/17 00:20:22;;;;;;;25.20;11.83;;;-1.60;99.90;;;-0.73;100.00;98125.78;4999907;28;20479;-82
2021/01/17 00:22:53;;;;;;;25.50;12.20;;;-1.50;99.90;;;-0.76;100.00;98117.50;4998975;28;20475;-82
2021/01/17 00:25:23;;;;;;;20.27;11.10;;;-1.50;99.90;;;-0.76;100.00;98113.19;4999535;28;20471;-82
2021/01/17 00:27:51;;;;;;;23.50;11.10;;;-1.50;99.90;;;-0.76;100.00;98115.75;4997085;28;20467;-82
2021/01/17 00:30:25;;;;;;;19.60;11.30;;;-1.50;99.90;;;-0.82;100.00;98108.53;4999283;28;20488;-82
2021/01/17 00:32:56;;;;;;;29.53;11.33;;;-1.70;99.90;;;-0.83;100.00;98096.63;4999301;28;20505;-82
2021/01/17 00:35:26;;;;;;;24.83;11.90;;;-1.70;99.90;;;-0.84;100.00;98097.56;4997119;28;20471;-82
2021/01/17 00:37:56;;;;;;;18.83;11.10;;;-1.70;99.90;;;-0.83;100.00;98096.63;4998044;28;20550;-82
2021/01/17 00:40:26;;;;;;;23.17;11.70;;;-1.60;99.90;;;-0.81;100.00;98097.34;4998199;28;20463;-82
2021/01/17 00:42:55;;;;;;;22.97;11.50;;;-1.60;99.90;;;-0.81;100.00;98088.81;5000731;28;20509;-82
2021/01/17 00:45:27;;;;;;;20.63;11.07;;;-1.70;99.90;;;-0.81;100.00;98074.25;5000432;28;20864;-82
2021/01/17 00:47:55;;;;;;;20.30;11.70;;;-1.70;99.90;;;-0.88;100.00;98073.06;4999785;28;20487;-81
2021/01/17 00:50:25;;;;;;;25.07;11.90;;;-1.70;99.90;;;-0.82;100.00;98077.72;4998820;28;20974;-82
2021/01/17 00:52:54;;;;;;;22.40;10.90;;;-1.70;99.90;;;-0.82;100.00;98067.47;4998575;28;20542;-82
2021/01/17 00:55:22;;;;;;;23.53;11.77;;;-1.70;99.90;;;-0.89;100.00;98076.56;5000293;28;20498;-82
2021/01/17 00:57:50;;;;;;;20.47;11.13;;;-1.70;99.90;;;-0.97;100.00;98053.22;4997176;28;20899;-82
2021/01/17 01:00:24;;;;;;;25.17;10.97;;;-1.80;99.90;;;-0.96;100.00;98057.41;4998078;28;21094;-81
2021/01/17 01:02:51;;;;;;;28.07;12.30;;;-1.80;99.90;;;-0.89;100.00;98063.72;4998219;28;20480;-82
2021/01/17 01:05:19;;;;;;;20.27;11.13;;;-1.60;99.90;;;-0.86;100.00;98057.53;4998086;28;20549;-82
2021/01/17 01:07:47;;;;;;;21.47;12.60;;;-1.70;99.90;;;-0.85;100.00;98060.00;4998615;28;20480;-82
2021/01/17 01:10:19;;;;;;;22.80;11.20;;;-1.70;99.90;;;-0.83;100.00;98055.56;4998467;28;20462;-82
2021/01/17 01:12:52;;;;;;;22.33;11.57;;;-1.60;99.90;;;-0.87;100.00;98054.19;4999200;28;20506;-82
2021/01/17 01:15:21;;;;;;;22.00;10.13;;;-1.70;99.90;;;-0.86;100.00;98053.22;4998218;28;20459;-82
2021/01/17 01:17:49;;;;;;;21.80;12.23;;;-1.70;99.90;;;-0.88;100.00;98060.25;4996548;28;20479;-82
2021/01/17 01:20:16;;;;;;;20.17;10.57;;;-1.70;99.90;;;-0.85;100.00;98056.63;4999913;28;20825;-82
2021/01/17 01:22:44;;;;;;;23.40;11.90;;;-1.60;99.90;;;-0.79;100.00;98054.41;4999609;28;20554;-82
2021/01/17 01:25:12;;;;;;;21.83;10.63;;;-1.50;99.90;;;-0.80;100.00;98041.69;4997645;28;21480;-82
2021/01/17 01:27:46;;;;;;;23.30;10.90;;;-1.60;99.90;;;-0.80;100.00;98039.94;4996927;28;20500;-82
2021/01/17 01:30:15;;;;;;;22.10;10.93;;;-1.60;99.90;;;-0.78;100.00;98043.22;4998822;28;20514;-82
2021/01/17 01:32:44;;;;;;;19.20;10.40;;;-1.60;99.90;;;-0.88;100.00;98037.13;4995705;28;20499;-82
2021/01/17 01:35:12;;;;;;;21.97;11.37;;;-1.60;99.90;;;-0.97;100.00;98030.13;4997122;28;20475;-82
2021/01/17 01:37:39;;;;;;;18.50;10.17;;;-1.80;99.90;;;-0.98;100.00;98038.78;4999720;28;20467;-82
2021/01/17 01:40:08;;;;;;;23.93;11.80;;;-1.80;99.90;;;-0.98;100.00;98036.22;5000161;28;20471;-82
2021/01/17 01:42:42;;;;;;;20.23;10.53;;;-1.80;99.90;;;-0.93;100.00;98041.78;4999581;28;20474;-82
2021/01/17 01:45:11;;;;;;;19.97;11.20;;;-1.70;99.90;;;-0.97;100.00;98034.47;4999831;28;20478;-82
2021/01/17 01:47:41;;;;;;;21.23;11.30;;;-1.80;99.90;;;-0.90;100.00;98039.00;4998591;28;20863;-82
2021/01/17 01:50:12;;;;;;;24.80;12.20;;;-1.70;99.90;;;-0.98;100.00;98046.47;4997473;28;20477;-82
2021/01/17 01:52:40;;;;;;;20.00;11.17;;;-1.80;99.90;;;-0.87;100.00;98050.78;5002662;28;21004;-82
2021/01/17 01:55:10;;;;;;;20.47;11.53;;;-1.60;99.90;;;-0.78;100.00;98057.78;5001534;28;21125;-82
2021/01/17 01:57:37;;;;;;;20.97;10.80;;;-1.50;99.90;;;-0.75;100.00;98055.81;5003059;28;20478;-82
2021/01/17 02:00:06;;;;;;;19.77;11.77;;;-1.40;99.90;;;-0.76;100.00;98053.34;5001600;28;20518;-82
2021/01/17 02:02:42;;;;;;;19.60;10.77;;;-1.50;99.90;;;-0.72;100.00;98053.00;5000247;28;20553;-82
2021/01/17 02:05:13;;;;;;;21.03;11.77;;;-1.30;99.90;;;-0.69;100.00;98059.66;5001576;28;20979;-82
2021/01/17 02:08:23;;;;;;;20.10;11.80;;;-1.40;99.90;;;-0.64;100.00;98060.13;5002650;28;20482;-82
2021/01/17 02:10:51;;;;;;;21.70;11.30;;;-1.30;99.90;;;-0.66;100.00;98056.88;5002459;28;21025;-82
2021/01/17 02:13:30;;;;;;;21.13;10.43;;;-1.40;99.90;;;-0.63;100.00;98051.50;5002241;28;20561;-82
2021/01/17 02:15:59;;;;;;;16.47;9.77;;;-1.20;99.90;;;-0.68;100.00;98049.28;5002794;28;21135;-82
2021/01/17 02:18:32;;;;;;;22.20;11.50;;;-1.30;99.90;;;-0.70;100.00;98046.03;5002810;28;20576;-82
2021/01/17 02:21:04;;;;;;;23.43;10.47;;;-1.40;99.90;;;-0.72;100.00;98044.47;5001984;28;20467;-82
2021/01/17 02:23:41;;;;;;;24.47;11.33;;;-1.50;99.90;;;-0.74;100.00;98034.34;5001381;28;20525;-82
2021/01/17 02:26:10;;;;;;;22.70;10.70;;;-1.50;99.90;;;-0.68;100.00;98027.91;4999675;28;20574;-82
2021/01/17 02:28:40;;;;;;;21.17;11.70;;;-1.50;99.90;;;-0.72;100.00;98022.19;5002217;28;20486;-82
2021/01/17 02:31:10;;;;;;;22.67;10.57;;;-1.50;99.90;;;-0.70;100.00;98025.47;5000345;28;20565;-82
2021/01/17 02:33:40;;;;;;;25.40;10.60;;;-1.40;99.90;;;-0.70;100.00;98022.91;5000968;28;20522;-82
2021/01/17 02:36:32;;;;;;;22.70;10.93;;;-1.40;99.90;;;-0.71;100.00;98023.84;5001376;28;20997;-82
2021/01/17 02:39:08;;;;;;;16.67;10.37;;;-1.40;99.90;;;-0.79;100.00;98031.31;5000337;28;20471;-82
2021/01/17 02:41:57;;;;;;;18.20;9.90;;;-1.60;99.90;;;-0.70;100.00;98020.34;5000418;28;20548;-81
2021/01/17 02:44:26;;;;;;;19.57;10.30;;;-1.40;99.90;;;-0.71;100.00;98018.72;5001633;28;20482;-82
2021/01/17 02:46:55;;;;;;;21.73;11.77;;;-1.40;99.90;;;-0.68;100.00;98017.66;5001638;28;20502;-82
2021/01/17 02:49:23;;;;;;;26.77;11.30;;;-1.40;99.90;;;-0.71;100.00;98012.75;5001849;28;20481;-82
2021/01/17 02:51:53;;;;;;;19.10;10.10;;;-1.50;99.90;;;-0.73;100.00;98012.84;5001366;28;20471;-82
2021/01/17 02:54:30;;;;;;;19.67;11.20;;;-1.50;99.90;;;-0.77;100.00;98008.91;5000781;28;20491;-82
2021/01/17 02:57:04;;;;;;;23.90;10.67;;;-1.60;99.90;;;-0.75;100.00;98008.78;5003234;28;20458;-82
2021/01/17 02:59:37;;;;;;;22.53;12.20;;;-1.60;99.90;;;-0.71;100.00;98010.19;5001438;28;20569;-82
2021/01/17 03:02:07;;;;;;;20.00;10.60;;;-1.50;99.90;;;-0.71;100.00;97999.91;5000131;28;20517;-82
2021/01/17 03:04:41;;;;;;;21.70;11.63;;;-1.50;99.90;;;-0.68;100.00;98005.63;5000823;28;20499;-82
2021/01/17 03:07:14;;;;;;;22.50;10.20;;;-1.50;99.90;;;-0.67;100.00;98009.84;5000101;28;20514;-82
2021/01/17 03:09:45;;;;;;;23.93;11.90;;;-1.40;99.90;;;-0.71;100.00;98011.00;5001713;28;20468;-82
2021/01/17 03:12:13;;;;;;;25.77;12.00;;;-1.50;99.90;;;-0.70;100.00;98014.41;5001920;28;20481;-82
2021/01/17 03:14:45;;;;;;;20.73;11.50;;;-1.50;99.90;;;-0.70;100.00;98010.09;5001511;28;20473;-81
2021/01/17 03:17:13;;;;;;;23.07;12.50;;;-1.50;99.90;;;-0.68;100.00;98010.75;5001034;28;20688;-82
2021/01/17 03:19:41;;;;;;;22.87;11.20;;;-1.50;99.90;;;-0.71;100.00;98013.56;5002592;28;20495;-82
2021/01/17 03:22:09;;;;;;;21.90;10.57;;;-1.50;99.90;;;-0.70;100.00;98009.25;5000337;28;21012;-82
2021/01/17 03:24:36;;;;;;;18.73;10.67;;;-1.50;99.90;;;-0.78;100.00;98004.72;5000324;28;20467;-82
2021/01/17 03:27:05;;;;;;;24.37;12.77;;;-1.60;99.90;;;-0.79;100.00;98008.19;4998154;28;20478;-81
2021/01/17 03:29:33;;;;;;;19.80;11.00;;;-1.60;99.90;;;-0.88;100.00;98016.63;4999436;28;21000;-82
2021/01/17 03:32:01;;;;;;;27.00;13.13;;;-1.70;99.90;;;-0.85;100.00;98018.13;5000198;28;20478;-82
2021/01/17 03:34:28;;;;;;;22.47;10.73;;;-1.70;99.90;;;-0.77;100.00;98013.22;4999946;28;20892;-82
2021/01/17 03:36:56;;;;;;;18.70;9.43;;;-1.50;99.90;;;-0.75;100.00;98022.44;4998685;28;20475;-82
2021/01/17 03:39:23;;;;;;;20.53;11.30;;;-1.50;99.90;;;-0.78;100.00;98017.53;4998426;28;20494;-82
2021/01/17 03:41:51;;;;;;;23.53;10.90;;;-1.60;99.90;;;-0.75;100.00;98009.59;4999772;28;20482;-82
2021/01/17 03:44:19;;;;;;;19.77;10.90;;;-1.50;99.90;;;-0.76;100.00;98025.94;5000548;28;20478;-82
2021/01/17 03:46:47;;;;;;;24.83;10.90;;;-1.60;99.90;;;-0.78;100.00;98027.81;5000553;28;20472;-81
2021/01/17 03:49:15;;;;;;;17.83;10.80;;;-1.60;99.90;;;-0.81;100.00;98032.34;5000087;28;20478;-81
2021/01/17 03:51:42;;;;;;;21.27;11.30;;;-1.70;99.90;;;-0.78;100.00;98032.13;4997857;28;20474;-82
2021/01/17 03:54:10;;;;;;;21.70;10.57;;;-1.60;99.90;;;-0.74;100.00;98036.09;5000009;28;20503;-82
2021/01/17 03:56:37;;;;;;;20.10;10.93;;;-1.60;99.90;;;-0.75;100.00;98022.44;4999524;28;20526;-82
2021/01/17 03:59:05;;;;;;;22.00;10.97;;;-1.60;99.90;;;-0.72;100.00;98021.38;5001527;28;20549;-82
2021/01/17 04:01:32;;;;;;;21.00;10.40;;;-1.40;99.90;;;-0.70;100.00;98029.78;5000989;28;20478;-82
2021/01/17 04:04:01;;;;;;;19.33;10.53;;;-1.50;99.90;;;-0.73;100.00;98028.25;4999507;28;20467;-81
2021/01/17 04:06:28;;;;;;;22.33;11.60;;;-1.50;99.90;;;-0.74;100.00;98021.50;5001230;28;20455;-82
2021/01/17 04:08:56;;;;;;;19.10;10.37;;;-1.50;99.90;;;-0.71;100.00;98030.72;4998222;28;20497;-83
2021/01/17 04:11:23;;;;;;;16.47;9.83;;;-1.40;99.90;;;-0.63;100.00;98021.50;4999960;28;20475;-81
2021/01/17 04:13:51;;;;;;;17.67;10.10;;;-1.30;99.90;;;-0.64;100.00;98019.88;5002685;28;20825;-82
2021/01/17 04:16:18;;;;;;;23.70;11.07;;;-1.40;99.90;;;-0.60;100.00;98023.03;4998363;28;20477;-82
2021/01/17 04:18:46;;;;;;;24.40;12.50;;;-1.30;99.90;;;-0.56;100.00;98032.94;5000527;28;20455;-82
2021/01/17 04:21:16;;;;;;;20.30;9.87;;;-1.20;99.90;;;-0.57;100.00;98036.44;4998661;28;20467;-81
2021/01/17 04:23:43;;;;;;;21.63;10.90;;;-1.20;99.90;;;-0.54;100.00;98036.19;5000223;28;20471;-82
2021/01/17 04:26:11;;;;;;;21.43;10.50;;;-1.20;99.90;;;-0.55;100.00;98039.69;5000978;28;20495;-82
2021/01/17 04:28:39;;;;;;;18.47;9.60;;;-1.20;99.90;;;-0.55;100.00;98044.81;4996787;28;20495;-82
2021/01/17 04:31:07;;;;;;;21.57;10.77;;;-1.20;99.90;;;-0.48;100.00;98031.50;5000755;28;20844;-82
2021/01/17 04:33:35;;;;;;;20.40;10.20;;;-1.10;99.90;;;-0.48;100.00;98042.59;5000050;28;20495;-82
2021/01/17 04:36:04;;;;;;;18.77;10.90;;;-1.10;99.90;;;-0.55;100.00;98032.00;4996738;28;20478;-82
2021/01/17 04:38:32;;;;;;;19.07;10.87;;;-1.30;99.90;;;-0.54;100.00;98041.34;4999746;28;20472;-82
2021/01/17 04:41:05;;;;;;;18.93;10.73;;;-1.30;99.90;;;-0.57;100.00;98036.44;4999772;28;20466;-82
2021/01/17 04:43:39;;;;;;;21.53;10.63;;;-1.30;99.90;;;-0.52;100.00;98024.03;4997721;28;20489;-82
2021/01/17 04:46:10;;;;;;;19.00;9.53;;;-1.20;99.90;;;-0.54;100.00;98036.19;4999097;28;20470;-81
2021/01/17 04:48:42;;;;;;;19.53;10.07;;;-1.20;99.90;;;-0.53;100.00;98026.75;5001327;28;20443;-82
2021/01/17 04:51:11;;;;;;;23.40;11.43;;;-1.20;99.90;;;-0.48;100.00;98028.94;4996490;28;21783;-81
2021/01/17 04:53:41;;;;;;;20.43;10.20;;;-1.10;99.90;;;-0.49;100.00;98041.00;4998780;28;20533;-82
2021/01/17 04:56:25;;;;;;;19.60;10.60;;;-1.20;99.90;;;-0.46;100.00;98032.22;4998128;28;20472;-82
2021/01/17 04:59:11;;;;;;;21.17;10.97;;;-1.20;99.90;;;-0.45;100.00;98024.38;4999551;28;20494;-82
2021/01/17 05:02:07;;;;;;;23.33;11.23;;;-1.10;99.90;;;-0.43;100.00;98029.41;4999389;28;20976;-82
2021/01/17 05:05:07;;;;;;;22.10;10.03;;;-1.10;99.90;;;-0.42;100.00;98023.34;4998107;28;20478;-82
2021/01/17 05:07:38;;;;;;;21.43;10.63;;;-1.10;99.90;;;-0.45;100.00;98028.72;4999141;28;20493;-82
2021/01/17 05:10:11;;;;;;;18.30;10.07;;;-1.20;99.90;;;-0.42;100.00;98026.75;4999815;28;20497;-82
2021/01/17 05:12:51;;;;;;;21.07;10.60;;;-1.20;99.90;;;-0.38;100.00;98020.41;4998610;28;20504;-82
2021/01/17 05:15:22;;;;;;;20.30;10.17;;;-1.10;99.90;;;-0.37;100.00;98016.91;4998676;28;20474;-82
2021/01/17 05:17:56;;;;;;;21.20;9.97;;;-1.00;99.90;;;-0.38;100.00;98017.03;4999713;28;20569;-82
2021/01/17 05:20:23;;;;;;;24.53;10.53;;;-1.00;99.90;;;-0.42;100.00;98016.47;4995154;28;20978;-82
2021/01/17 05:22:53;;;;;;;19.13;9.67;;;-1.20;99.90;;;-0.38;100.00;98009.34;4998741;28;20467;-82
2021/01/17 05:25:26;;;;;;;20.97;10.73;;;-1.00;99.90;;;-0.41;100.00;98009.56;4997228;28;20474;-82
2021/01/17 05:27:54;;;;;;;17.97;10.23;;;-1.10;99.90;;;-0.41;100.00;98010.38;5003279;28;20551;-82
2021/01/17 05:30:23;;;;;;;20.30;10.83;;;-1.20;99.90;;;-0.38;100.00;98024.75;5002545;28;20479;-82
2021/01/17 05:32:52;;;;;;;19.97;10.30;;;-1.20;99.90;;;-0.36;100.00;98018.56;5000451;28;20469;-82
2021/01/17 05:35:23;;;;;;;17.97;10.80;;;-1.10;99.90;;;-0.33;100.00;98017.50;5000799;28;20474;-81
2021/01/17 05:37:52;;;;;;;15.90;10.50;;;-1.00;99.90;;;-0.35;100.00;98007.34;5002696;28;20471;-82
2021/01/17 05:40:24;;;;;;;19.37;9.70;;;-1.10;99.90;;;-0.38;100.00;98019.63;5001544;28;20792;-82
2021/01/17 05:42:55;;;;;;;17.73;9.63;;;-1.10;99.90;;;-0.45;100.00;98026.16;5003191;28;21388;-82
2021/01/17 05:45:25;;;;;;;19.47;10.47;;;-1.30;99.90;;;-0.43;100.00;98021.72;5002314;28;20978;-81
2021/01/17 05:47:55;;;;;;;22.30;11.30;;;-1.20;99.90;;;-0.42;100.00;98031.06;5002776;28;20479;-81
2021/01/17 05:50:24;;;;;;;21.57;10.60;;;-1.20;99.90;;;-0.45;100.00;98023.59;5000696;28;20465;-82
2021/01/17 05:52:53;;;;;;;18.00;9.63;;;-1.30;99.90;;;-0.45;100.00;98033.88;5002421;28;20566;-82
2021/01/17 05:55:31;;;;;;;15.53;9.20;;;-1.20;99.90;;;-0.40;100.00;98035.13;5002017;28;20462;-82
2021/01/17 05:58:24;;;;;;;16.37;10.30;;;-1.10;99.90;;;-0.39;100.00;98038.53;5002298;28;20474;-82
2021/01/17 06:00:55;;;;;;;21.30;10.80;;;-1.10;99.90;;;-0.52;100.00;98039.44;5002070;28;20469;-82
2021/01/17 06:03:28;;;;;;;18.80;10.70;;;-1.30;99.90;;;-0.51;100.00;98040.28;5003789;28;20780;-82
2021/01/17 06:06:01;;;;;;;20.40;10.57;;;-1.30;99.90;;;-0.46;100.00;98042.50;5002779;28;20842;-82
2021/01/17 06:08:29;;;;;;;17.70;10.30;;;-1.20;99.90;;;-0.44;100.00;98035.47;5001522;28;20502;-82
2021/01/17 06:11:09;;;;;;;23.33;11.13;;;-1.10;99.90;;;-0.42;100.00;98036.19;5000893;28;21022;-81
2021/01/17 06:13:39;;;;;;;18.60;9.97;;;-1.20;99.90;;;-0.52;100.00;98043.75;5000770;28;21264;-82
2021/01/17 06:16:24;;;;;;;20.77;11.60;;;-1.30;99.90;;;-0.47;100.00;98056.25;5001040;28;20474;-82
2021/01/17 06:18:57;;;;;;;21.20;10.90;;;-1.20;99.90;;;-0.38;100.00;98055.56;5001945;28;20467;-82
2021/01/17 06:21:27;;;;;;;22.37;11.13;;;-1.10;99.90;;;-0.40;100.00;98052.28;4997846;28;20519;-81
2021/01/17 06:23:58;;;;;;;15.17;8.20;;;-1.10;99.90;;;-0.52;100.00;98048.91;4999664;28;20498;-89
2021/01/17 06:26:32;;;;;;;20.23;10.20;;;-1.30;99.90;;;-0.56;100.00;98047.53;4997113;28;20463;-82
2021/01/17 06:29:14;;;;;;;27.07;11.93;;;-1.30;99.90;;;-0.48;100.00;98052.06;5000077;28;20530;-80
2021/01/17 06:31:42;;;;;;;19.83;10.60;;;-1.20;99.90;;;-0.44;100.00;98056.03;5002885;28;20458;-81
2021/01/17 06:34:13;;;;;;;17.47;9.77;;;-1.20;99.90;;;-0.39;100.00;98064.19;5002530;28;20574;-81
2021/01/17 06:36:44;;;;;;;19.40;9.90;;;-1.10;99.90;;;-0.41;100.00;98063.47;5000028;28;20451;-80
2021/01/17 06:39:21;;;;;;;16.47;10.87;;;-1.10;99.90;;;-0.36;100.00;98063.97;5001168;28;21018;-80
2021/01/17 06:41:53;;;;;;;21.77;10.53;;;-1.10;99.90;;;-0.32;100.00;98067.94;5002880;28;20464;-81
2021/01/17 06:44:28;;;;;;;18.93;10.30;;;-1.10;99.90;;;-0.38;100.00;98074.34;5001771;28;20485;-81
2021/01/17 06:46:58;;;;;;;16.47;9.63;;;-1.10;99.90;;;-0.35;100.00;98073.31;5002027;28;20446;-81
2021/01/17 06:49:29;;;;;;;16.40;9.67;;;-1.00;99.90;;;-0.37;100.00;98063.13;5003195;28;20456;-81
2021/01/17 06:51:58;;;;;;;17.90;10.67;;;-1.10;99.90;;;-0.37;100.00;98065.72;5002789;28;20456;-80
2021/01/17 06:54:34;;;;;;;20.37;10.00;;;-1.10;99.90;;;-0.34;100.00;98067.22;5002381;28;20895;-81
2021/01/17 06:57:04;;;;;;;20.63;11.27;;;-1.10;99.90;;;-0.36;100.00;98066.53;5001533;28;20447;-80
2021/01/17 06:59:36;;;;;;;17.70;10.27;;;-1.20;99.90;;;-0.34;100.00;98062.06;5001662;28;20464;-81
2021/01/17 07:02:38;;;;;;;16.93;10.07;;;-1.10;99.90;;;-0.30;100.00;98071.19;5000704;28;20443;-80
2021/01/17 07:05:50;;;;;;;17.80;9.60;;;-1.00;99.90;;;-0.33;100.00;98074.00;4998743;28;20556;-80
2021/01/17 07:08:51;;;;;;;18.80;10.43;;;-1.10;99.90;;;-0.29;100.00;98083.91;5000303;28;20518;-80
2021/01/17 07:11:37;;;;;;;21.87;11.13;;;-1.00;99.90;;;-0.28;100.00;98083.00;4998839;28;20475;-81
2021/01/17 07:14:09;;;;;;;17.83;9.80;;;-1.00;99.90;;;-0.27;100.00;98094.06;4999921;28;21059;-81
2021/01/17 07:16:46;;;;;;;19.50;10.20;;;-0.90;99.90;;;-0.26;100.00;98091.38;4995967;28;20833;-80
2021/01/17 07:19:21;;;;;;;18.30;9.63;;;-1.00;99.90;;;-0.27;100.00;98094.06;4999303;28;20934;-81
2021/01/17 07:21:52;;;;;;;17.37;9.33;;;-1.00;99.90;;;-0.23;100.00;98091.16;5001633;28;20455;-81
2021/01/17 07:24:21;;;;;;;18.00;8.67;;;-0.90;99.90;;;-0.21;100.00;98093.59;5000469;28;20472;-80
2021/01/17 07:27:14;;;;;;;17.40;8.77;;;-0.90;99.90;;;-0.33;100.00;98102.25;5001396;28;20448;-80
2021/01/17 07:29:44;;;;;;;18.83;10.13;;;-1.10;99.90;;;-0.35;100.00;98102.38;4980609;28;20492;-81
2021/01/17 07:32:34;;;;;;;16.93;9.30;;;-1.10;99.90;;;-0.25;100.00;98097.34;4998894;28;20476;-81
2021/01/17 07:35:11;;;;;;;20.10;10.50;;;-1.00;99.90;;;-0.22;100.00;98108.19;4999433;28;20502;-81
2021/01/17 07:37:42;;;;;;;14.07;8.80;;;-1.00;99.90;;;-0.26;100.00;98116.25;5000460;28;20466;-81
2021/01/17 07:40:13;;;;;;;17.30;9.40;;;-1.00;99.90;;;-0.24;100.00;98120.34;4999947;28;20474;-86
2021/01/17 07:42:41;;;;;;;17.47;10.47;;;-1.00;99.90;;;-0.20;100.00;98126.06;5001600;28;20468;-81
2021/01/17 07:45:19;;;;;;;19.23;10.60;;;-0.90;99.90;;;-0.17;100.00;98116.34;4998432;28;20466;-81
2021/01/17 07:47:47;;;;;;;20.70;9.47;;;-0.90;99.90;;;-0.16;100.00;98123.13;5001065;28;20462;-81
2021/01/17 07:50:16;;;;;;;23.57;9.00;;;-0.90;99.90;;;-0.16;100.00;98120.56;4998354;28;20486;-81
2021/01/17 07:52:56;;;;;;;18.63;9.93;;;-0.80;99.90;;;-0.13;100.00;98127.22;5001666;28;20452;-81
2021/01/17 07:55:26;;;;;;;22.93;12.30;;;-0.80;99.90;;;-0.10;100.00;98137.25;5001684;28;20576;-81
2021/01/17 07:57:58;;;;;;;22.83;10.90;;;-0.80;99.90;;;-0.07;100.00;98144.75;5000765;28;20870;-81
2021/01/17 08:00:27;;;;;;;19.00;10.60;;;-0.80;99.90;;;-0.04;100.00;98149.66;5000787;28;20471;-81
2021/01/17 08:02:57;;;;;;;22.50;12.07;;;-0.70;99.90;;;-0.03;100.00;98154.66;4997527;28;20840;-82
2021/01/17 08:05:59;;;;;;;23.27;12.10;;;-0.70;99.90;;;-0.04;100.00;98157.34;4998804;28;20467;-81
2021/01/17 08:08:49;;;;;;;20.97;11.03;;;-0.80;99.90;;;0.01;100.00;98150.09;4999313;28;21370;-82
2021/01/17 08:11:44;;;;;;;20.73;11.03;;;-0.70;99.90;;;0.00;100.00;98148.47;4999325;28;22769;-79
2021/01/17 08:14:22;;;;;;;22.27;10.27;;;-0.70;99.90;;;0.04;100.00;98155.00;4998121;28;20495;-87
2021/01/17 08:17:11;;;;;;;20.20;10.03;;;-0.60;99.90;;;0.07;100.00;98159.88;5000427;28;21015;-85
2021/01/17 08:19:43;;;;;;;21.13;9.70;;;-0.60;99.90;;;0.07;100.00;98151.38;4997481;28;21052;-85
2021/01/17 08:22:47;;;;;;;19.10;10.57;;;-0.60;99.90;;;0.06;100.00;98158.28;4998191;28;20542;-85
2021/01/17 08:25:58;;;;;;;17.17;9.70;;;-0.60;99.90;;;0.00;100.00;98163.91;4983028;28;20478;-84
2021/01/17 08:28:46;;;;;;;18.53;10.00;;;-0.70;99.90;;;0.09;100.00;98157.22;4937710;29;20504;-84
2021/01/17 08:31:42;;;;;;;19.30;9.70;;;-0.60;99.90;;;0.02;100.00;98166.34;4934275;29;20462;-84
2021/01/17 08:34:26;;;;;;;21.83;10.57;;;-0.70;99.90;;;-0.01;100.00;98172.53;4988396;28;20978;-84
2021/01/17 08:36:56;;;;;;;16.87;8.93;;;-0.70;99.90;;;0.02;100.00;98166.34;4999208;28;20475;-84
2021/01/17 08:39:51;;;;;;;19.50;9.60;;;-0.70;99.90;;;0.01;100.00;98175.78;5000259;28;20469;-84
2021/01/17 08:42:33;;;;;;;18.40;10.30;;;-0.60;99.90;;;0.01;100.00;98175.78;4997102;28;20471;-87
2021/01/17 08:45:04;;;;;;;20.47;9.33;;;-0.70;99.90;;;0.07;100.00;98177.88;4998323;28;20467;-79
2021/01/17 08:47:36;;;;;;;18.40;10.40;;;-0.60;99.90;;;0.13;100.00;98167.16;4998555;28;20463;-85
2021/01/17 08:50:07;;;;;;;16.83;9.60;;;-0.60;99.90;;;0.14;100.00;98168.75;4998765;28;20474;-88
2021/01/17 08:52:38;;;;;;;16.20;8.97;;;-0.60;99.90;;;0.20;100.00;98172.63;4999323;28;20463;-85
2021/01/17 08:55:08;;;;;;;18.27;9.63;;;-0.50;99.90;;;0.23;100.00;98175.78;4997568;28;20503;-84
2021/01/17 08:57:44;;;;;;;18.20;10.10;;;-0.50;99.90;;;0.28;100.00;98177.97;4997586;28;21425;-86
2021/01/17 09:00:17;;;;;;;16.83;10.00;;;-0.50;99.90;;;0.31;100.00;98180.34;4996416;28;21019;-86
2021/01/17 09:03:37;;;;;;;17.00;9.00;;;-0.40;99.90;;;0.35;100.00;98179.13;4998052;28;20522;-85
2021/01/17 09:06:29;;;;;;;18.60;10.30;;;-0.40;99.90;;;0.40;100.00;98183.00;4997231;28;20962;-85
2021/01/17 09:09:06;;;;;;;21.07;9.90;;;-0.30;99.90;;;0.40;100.00;98183.00;5001266;28;20815;-84
2021/01/17 09:11:40;;;;;;;17.60;9.57;;;-0.30;99.90;;;0.46;100.00;98182.50;4999221;28;20471;-84
2021/01/17 09:14:19;;;;;;;16.13;9.00;;;-0.30;99.90;;;0.50;100.00;98183.91;4999701;28;21047;-84
2021/01/17 09:16:56;;;;;;;17.50;9.90;;;-0.20;99.90;;;0.52;100.00;98190.69;4996926;28;20522;-84
2021/01/17 09:19:29;;;;;;;18.20;8.97;;;-0.20;99.90;;;0.56;100.00;98199.78;4996989;28;20463;-84
2021/01/17 09:22:01;;;;;;;20.67;10.17;;;-0.10;99.90;;;0.58;100.00;98200.50;4998550;28;20471;-85
2021/01/17 09:24:32;;;;;;;18.30;9.57;;;0.00;99.90;;;0.62;100.00;98196.75;4997272;28;20598;-85
2021/01/17 09:27:07;;;;;;;18.07;10.10;;;0.10;99.90;;;0.64;100.00;98205.13;4997841;28;20474;-85
2021/01/17 09:29:39;;;;;;;16.83;8.23;;;0.10;99.90;;;0.65;100.00;98207.59;4995227;28;20491;-84
2021/01/17 09:32:10;;;;;;;18.97;10.30;;;0.10;99.90;;;0.65;100.00;98207.59;4998992;28;20470;-85
2021/01/17 09:34:43;;;;;;;19.00;9.30;;;0.00;99.90;;;0.67;100.00;98210.84;4996029;28;20589;-85
2021/01/17 09:37:15;;;;;;;17.90;10.30;;;0.00;99.90;;;0.71;100.00;98217.41;4996909;28;20455;-84
2021/01/17 09:39:45;;;;;;;20.43;9.57;;;0.10;99.90;;;0.77;100.00;98222.06;4994984;28;20626;-81
2021/01/17 09:42:15;;;;;;;26.40;10.20;;;0.10;99.90;;;0.81;100.00;98227.78;4997898;28;20481;-80
2021/01/17 09:44:52;;;;;;;21.97;11.57;;;0.20;99.90;;;0.80;100.00;98233.88;4997439;28;20522;-80
2021/01/17 09:47:22;;;;;;;20.13;10.33;;;0.20;99.90;;;0.82;100.00;98234.56;4998744;28;20535;-80
2021/01/17 09:49:51;;;;;;;18.33;9.30;;;0.20;99.90;;;0.85;100.00;98237.72;4997725;28;20478;-81
2021/01/17 09:52:22;;;;;;;14.73;8.67;;;0.20;99.90;;;0.84;100.00;98233.50;4998298;28;20554;-79
2021/01/17 09:54:52;;;;;;;16.40;9.30;;;0.10;99.90;;;0.88;100.00;98240.03;4996370;28;21055;-80
2021/01/17 09:57:23;;;;;;;17.93;10.17;;;0.20;99.90;;;0.86;100.00;98236.78;4998735;28;20475;-79
2021/01/17 09:59:53;;;;;;;16.47;8.80;;;0.10;99.90;;;0.93;100.00;98239.69;4997866;28;20526;-79
2021/01/17 10:02:23;;;;;;;17.80;9.40;;;0.20;99.90;;;0.92;100.00;98238.88;4998483;28;20800;-79
2021/01/17 10:04:51;;;;;;;18.13;8.97;;;0.30;99.90;;;0.97;100.00;98248.81;4998427;28;20474;-79
2021/01/17 10:07:21;;;;;;;22.13;8.77;;;0.20;99.90;;;0.99;100.00;98247.75;4996104;28;20491;-79
2021/01/17 10:09:54;;;;;;;20.10;9.27;;;0.30;99.90;;;1.02;100.00;98247.50;4998883;28;20999;-80
2021/01/17 10:12:24;;;;;;;18.87;10.03;;;0.30;99.90;;;1.06;100.00;98248.06;4999324;28;20865;-80
2021/01/17 10:14:53;;;;;;;17.40;9.43;;;0.30;99.90;;;1.09;100.00;98259.88;5001817;28;20595;-79
2021/01/17 10:17:21;;;;;;;19.17;8.80;;;0.40;99.90;;;1.15;100.00;98251.63;5000245;28;20467;-79
2021/01/17 10:20:00;;;;;;;17.30;9.10;;;0.50;99.90;;;1.19;100.00;98247.88;5002611;28;21040;-79
2021/01/17 10:22:28;;;;;;;18.03;9.57;;;0.50;99.90;;;1.21;100.00;98248.59;4999811;28;20467;-87
2021/01/17 10:24:56;;;;;;;18.17;9.90;;;0.50;99.90;;;1.26;100.00;98252.41;5000825;28;20474;-83
2021/01/17 10:27:25;;;;;;;17.70;9.50;;;0.70;99.90;;;1.28;100.00;98253.13;4999477;28;20464;-79